Terminal Aerodrome Forecast
Issued by NWS

Home | Current Version | Previous Version | Text Only | Print | Product List | Glossary On
Versions: 1 2 3 4 5 6 7 8 9 10 11 12 13 14 15
634
FTUS41 KILN 290527
TAFLCK
TAF
KLCK 290527Z 2906/3006 16004KT P6SM BKN250
     FM290800 16005KT P6SM BKN250 WS020/23035KT
     FM291300 20010KT P6SM BKN250
     FM291600 22012G22KT P6SM SCT040 SCT250
     FM292300 21011KT P6SM BKN250=

USA.gov is the U.S. government's official web portal to all federal, state and local government web resources and services.